createdAt,value
2018-06-02T00:02:16.418Z,101471.04
2018-06-02T00:04:48.468Z,101476.41
2018-06-02T00:07:21.551Z,101472.20
2018-06-02T00:12:43.465Z,101460.81
2018-06-02T00:15:15.219Z,101466.85
2018-06-02T00:17:47.309Z,101463.25
2018-06-02T00:20:19.120Z,101459.12
2018-06-02T00:22:51.087Z,101464.66
2018-06-02T00:25:23.095Z,101455.69
2018-06-02T00:27:54.586Z,101457.64
2018-06-02T00:30:26.258Z,101452.17
2018-06-02T00:32:58.845Z,101450.16
2018-06-02T00:35:30.578Z,101447.91
2018-06-02T00:38:02.967Z,101448.82
2018-06-02T00:40:35.133Z,101448.67
2018-06-02T00:43:07.103Z,101448.33
2018-06-02T00:45:39.243Z,101445.58
2018-06-02T00:48:11.262Z,101444.91
2018-06-02T00:50:43.217Z,101448.58
2018-06-02T00:53:15.221Z,101444.63
2018-06-02T00:55:47.241Z,101438.10
2018-06-02T00:58:19.488Z,101435.53
2018-06-02T01:00:51.263Z,101442.30
2018-06-02T01:03:23.247Z,101441.30
2018-06-02T01:05:55.253Z,101444.23
2018-06-02T01:08:28.888Z,101444.48
2018-06-02T01:11:01.286Z,101443.98
2018-06-02T01:13:33.291Z,101444.41
2018-06-02T01:16:05.242Z,101442.45
2018-06-02T01:18:37.250Z,101451.17
2018-06-02T01:21:09.278Z,101444.54
2018-06-02T01:23:42.599Z,101438.70
2018-06-02T01:26:13.096Z,101439.63
2018-06-02T01:29:23.714Z,101441.22
2018-06-02T01:31:55.496Z,101443.06
2018-06-02T01:34:28.536Z,101437.21
2018-06-02T01:36:59.064Z,101439.97
2018-06-02T01:39:31.226Z,101432.78
2018-06-02T01:42:03.567Z,101429.16
2018-06-02T01:44:34.503Z,101429.66
2018-06-02T01:47:06.296Z,101432.34
2018-06-02T01:49:38.538Z,101434.78
2018-06-02T01:53:09.599Z,101436.44
2018-06-02T01:57:19.490Z,101434.51
2018-06-02T01:59:51.268Z,101436.38
2018-06-02T02:02:23.258Z,101434.58
2018-06-02T02:04:56.284Z,101435.64
2018-06-02T02:07:28.502Z,101441.56
2018-06-02T02:09:59.492Z,101437.97
2018-06-02T02:12:32.484Z,101446.10
2018-06-02T02:15:04.506Z,101444.23
2018-06-02T02:18:43.509Z,101450.50
2018-06-02T02:21:15.237Z,101449.66
2018-06-02T02:23:47.266Z,101449.82
2018-06-02T02:26:19.253Z,101454.08
2018-06-02T02:28:51.221Z,101449.89
2018-06-02T02:31:23.244Z,101451.70
2018-06-02T02:35:00.480Z,101446.17
2018-06-02T02:37:32.240Z,101448.48
2018-06-02T02:42:25.948Z,101451.36
2018-06-02T02:46:17.574Z,101455.42
2018-06-02T02:48:48.339Z,101456.76
2018-06-02T02:51:20.424Z,101452.00
2018-06-02T02:53:52.302Z,101462.42
2018-06-02T02:56:24.287Z,101464.66
2018-06-02T02:58:56.266Z,101461.73
2018-06-02T03:01:29.085Z,101462.20
2018-06-02T03:04:02.479Z,101463.36
2018-06-02T03:06:34.567Z,101461.26
2018-06-02T03:09:07.497Z,101460.16
2018-06-02T03:11:40.565Z,101449.45
2018-06-02T03:14:12.570Z,101454.50
2018-06-02T03:16:45.050Z,101453.98
2018-06-02T03:19:16.562Z,101460.48
2018-06-02T03:21:49.233Z,101459.03
2018-06-02T03:24:21.551Z,101463.93
2018-06-02T03:26:54.626Z,101460.16
2018-06-02T03:31:26.613Z,101461.83
2018-06-02T03:33:57.409Z,101460.83
2018-06-02T03:36:29.258Z,101469.92
2018-06-02T03:39:01.262Z,101466.57
2018-06-02T03:41:33.410Z,101473.16
2018-06-02T03:44:06.114Z,101477.47
2018-06-02T03:47:10.476Z,101474.58
2018-06-02T03:52:15.591Z,101475.20
2018-06-02T03:54:47.405Z,101482.19
2018-06-02T03:57:19.492Z,101485.45
2018-06-02T03:59:51.530Z,101479.74
2018-06-02T04:02:24.565Z,101486.22
2018-06-02T04:04:57.563Z,101488.00
2018-06-02T04:07:28.101Z,101486.60
2018-06-02T04:10:00.502Z,101492.11
2018-06-02T04:12:32.505Z,101493.16
2018-06-02T04:15:04.488Z,101492.47
2018-06-02T04:17:36.574Z,101487.83
2018-06-02T04:20:07.404Z,101487.30
2018-06-02T04:22:39.312Z,101492.19
2018-06-02T04:25:11.252Z,101490.34
2018-06-02T04:27:43.263Z,101489.36
2018-06-02T04:30:15.241Z,101490.25
2018-06-02T04:32:47.529Z,101493.73
2018-06-02T04:35:19.538Z,101497.90
2018-06-02T04:37:51.616Z,101498.45
2018-06-02T04:40:22.537Z,101499.45
2018-06-02T04:42:56.032Z,101500.11
2018-06-02T04:45:28.525Z,101498.67
2018-06-02T04:48:00.521Z,101494.34
2018-06-02T04:50:32.626Z,101490.80
2018-06-02T04:53:03.400Z,101501.56
2018-06-02T04:55:40.111Z,101502.86
2018-06-02T04:58:12.528Z,101495.17
2018-06-02T05:00:44.544Z,101491.40
2018-06-02T05:03:16.627Z,101497.67
2018-06-02T05:05:48.537Z,101496.83
2018-06-02T05:08:20.539Z,101497.54
2018-06-02T05:10:52.531Z,101500.39
2018-06-02T05:13:23.333Z,101502.30
2018-06-02T05:15:55.538Z,101505.46
2018-06-02T05:18:29.710Z,101501.62
2018-06-02T05:21:01.582Z,101506.81
2018-06-02T05:23:32.121Z,101505.80
2018-06-02T05:26:04.267Z,101499.35
2018-06-02T05:28:36.225Z,101506.73
2018-06-02T05:31:08.270Z,101508.28
2018-06-02T05:33:40.273Z,101497.48
2018-06-02T05:36:12.263Z,101499.23
2018-06-02T05:38:44.579Z,101501.64
2018-06-02T05:41:15.384Z,101497.31
2018-06-02T05:43:47.271Z,101493.92
2018-06-02T05:46:20.263Z,101499.66
2018-06-02T05:48:52.248Z,101499.06
2018-06-02T05:53:25.791Z,101500.62
2018-06-02T05:55:57.565Z,101496.04
2018-06-02T05:58:29.595Z,101494.70
2018-06-02T06:01:00.108Z,101498.44
2018-06-02T06:03:32.235Z,101502.02
2018-06-02T06:06:04.220Z,101497.13
2018-06-02T06:08:36.252Z,101489.08
2018-06-02T06:11:08.474Z,101488.88
2018-06-02T06:13:40.233Z,101488.61
2018-06-02T06:17:08.534Z,101486.38
2018-06-02T06:19:40.223Z,101485.41
2018-06-02T06:22:12.414Z,101485.47
2018-06-02T06:24:44.230Z,101483.93
2018-06-02T06:27:16.216Z,101487.99
2018-06-02T06:29:48.233Z,101486.48
2018-06-02T06:32:20.486Z,101487.87
2018-06-02T06:34:52.326Z,101483.61
2018-06-02T06:37:24.369Z,101480.32
2018-06-02T06:39:56.508Z,101480.96
2018-06-02T06:44:33.641Z,101482.30
2018-06-02T06:47:04.536Z,101478.84
2018-06-02T06:49:35.382Z,101477.23
2018-06-02T06:52:07.529Z,101473.46
2018-06-02T06:54:39.530Z,101476.77
2018-06-02T06:57:11.538Z,101466.27
2018-06-02T07:02:20.750Z,101460.41
2018-06-02T07:04:52.626Z,101466.55
2018-06-02T07:07:23.512Z,101472.09
2018-06-02T07:09:57.507Z,101469.65
2018-06-02T07:12:30.677Z,101466.29
2018-06-02T07:15:02.774Z,101466.93
2018-06-02T07:17:36.857Z,101465.59
2018-06-02T07:20:09.814Z,101467.57
2018-06-02T07:22:41.865Z,101464.12
2018-06-02T07:25:15.540Z,101464.12
2018-06-02T07:27:49.833Z,101459.91
2018-06-02T07:30:23.531Z,101460.77
2018-06-02T07:32:57.687Z,101460.20
2018-06-02T07:35:30.106Z,101461.63
2018-06-02T07:40:15.581Z,101450.18
2018-06-02T07:42:47.536Z,101449.06
2018-06-02T07:45:19.563Z,101442.77
2018-06-02T07:47:52.605Z,101441.17
2018-06-02T07:50:26.891Z,101437.88
2018-06-02T07:52:59.329Z,101438.55
2018-06-02T07:55:32.748Z,101438.13
2018-06-02T07:58:04.966Z,101436.73
2018-06-02T08:00:37.535Z,101437.84
2018-06-02T08:03:10.628Z,101435.36
2018-06-02T08:05:42.877Z,101431.58
2018-06-02T08:08:15.576Z,101429.98
2018-06-02T08:10:48.615Z,101438.11
2018-06-02T08:13:22.015Z,101436.36
2018-06-02T08:15:55.733Z,101436.72
2018-06-02T08:18:27.670Z,101433.55
2018-06-02T08:21:00.660Z,101433.70
2018-06-02T08:23:34.315Z,101429.28
2018-06-02T08:26:07.539Z,101428.53
2018-06-02T08:30:55.262Z,101423.41
2018-06-02T08:33:28.650Z,101426.89
2018-06-02T08:36:00.733Z,101431.61
2018-06-02T08:38:34.771Z,101431.61
2018-06-02T08:41:08.969Z,101435.23
2018-06-02T08:45:18.851Z,101436.94
2018-06-02T08:47:52.504Z,101436.56
2018-06-02T08:50:25.524Z,101435.81
2018-06-02T08:52:59.503Z,101436.35
2018-06-02T08:55:33.704Z,101439.44
2018-06-02T08:58:07.863Z,101438.16
2018-06-02T09:00:41.626Z,101437.34
2018-06-02T09:03:15.887Z,101437.05
2018-06-02T09:05:49.572Z,101437.83
2018-06-02T09:08:21.654Z,101434.66
2018-06-02T09:10:54.646Z,101440.19
2018-06-02T09:13:28.639Z,101443.37
2018-06-02T09:16:00.548Z,101440.81
2018-06-02T09:18:34.716Z,101443.95
2018-06-02T09:21:08.840Z,101448.42
2018-06-02T09:23:42.890Z,101434.50
2018-06-02T09:26:16.623Z,101438.01
2018-06-02T09:28:48.752Z,101436.53
2018-06-02T09:31:22.842Z,101429.03
2018-06-02T09:33:56.621Z,101429.88
2018-06-02T09:36:28.814Z,101424.66
2018-06-02T09:39:03.267Z,101425.20
2018-06-02T09:41:37.886Z,101424.98
2018-06-02T09:44:11.898Z,101425.07
2018-06-02T09:46:43.542Z,101427.84
2018-06-02T09:49:16.822Z,101419.16
2018-06-02T09:51:50.351Z,101418.31
2018-06-02T09:54:24.505Z,101414.91
2018-06-02T09:56:56.772Z,101422.45
2018-06-02T09:59:28.554Z,101419.46
2018-06-02T10:02:02.953Z,101420.42
2018-06-02T10:04:37.305Z,101418.73
2018-06-02T10:07:11.634Z,101422.72
2018-06-02T10:09:45.538Z,101415.31
2018-06-02T10:12:20.252Z,101418.23
2018-06-02T10:14:53.524Z,101421.45
2018-06-02T10:17:26.537Z,101423.64
2018-06-02T10:19:59.542Z,101427.89
2018-06-02T10:22:32.612Z,101426.70
2018-06-02T10:25:04.823Z,101422.35
2018-06-02T10:27:38.713Z,101425.78
2018-06-02T10:30:12.872Z,101430.81
2018-06-02T10:32:46.884Z,101420.72
2018-06-02T10:35:20.104Z,101426.46
2018-06-02T10:37:54.622Z,101425.55
2018-06-02T10:40:26.496Z,101422.42
2018-06-02T10:42:59.630Z,101421.72
2018-06-02T10:45:33.339Z,101415.47
2018-06-02T10:48:07.876Z,101424.86
2018-06-02T10:50:41.894Z,101418.75
2018-06-02T10:53:16.110Z,101421.61
2018-06-02T10:55:49.254Z,101424.83
2018-06-02T10:58:23.987Z,101421.33
2018-06-02T11:00:58.121Z,101417.97
2018-06-02T11:03:31.746Z,101418.37
2018-06-02T11:06:05.517Z,101419.05
2018-06-02T11:08:39.178Z,101424.50
2018-06-02T11:11:12.630Z,101425.78
2018-06-02T11:13:44.510Z,101424.02
2018-06-02T11:16:17.586Z,101424.28
2018-06-02T11:18:51.545Z,101425.11
2018-06-02T11:23:10.242Z,101428.25
2018-06-02T11:25:44.683Z,101425.56
2018-06-02T11:28:17.764Z,101420.98
2018-06-02T11:30:51.837Z,101423.55
2018-06-02T11:33:23.543Z,101427.45
2018-06-02T11:35:55.760Z,101421.29
2018-06-02T11:38:28.583Z,101415.22
2018-06-02T11:41:01.724Z,101412.63
2018-06-02T11:43:35.247Z,101409.55
2018-06-02T11:46:08.515Z,101414.17
2018-06-02T11:48:42.511Z,101410.66
2018-06-02T11:51:17.123Z,101412.56
2018-06-02T11:53:50.240Z,101408.77
2018-06-02T11:56:23.525Z,101402.19
2018-06-02T11:58:56.506Z,101401.20
2018-06-02T12:01:29.882Z,101398.80
2018-06-02T12:04:03.922Z,101395.77
2018-06-02T12:06:37.727Z,101396.48
2018-06-02T12:09:11.738Z,101388.57
2018-06-02T12:11:45.599Z,101378.48
2018-06-02T12:14:18.352Z,101369.81
2018-06-02T12:16:51.667Z,101376.03
2018-06-02T12:19:24.578Z,101379.63
2018-06-02T12:21:56.493Z,101385.38
2018-06-02T12:24:29.481Z,101397.78
2018-06-02T12:27:02.867Z,101395.64
2018-06-02T12:29:36.880Z,101402.98
2018-06-02T12:32:10.526Z,101402.37
2018-06-02T12:34:43.531Z,101402.47
2018-06-02T12:37:17.498Z,101407.09
2018-06-02T12:39:51.910Z,101396.25
2018-06-02T12:42:26.027Z,101396.59
2018-06-02T12:44:59.048Z,101403.17
2018-06-02T12:47:33.013Z,101403.13
2018-06-02T12:50:08.062Z,101399.85
2018-06-02T12:52:41.620Z,101400.33
2018-06-02T12:55:13.512Z,101406.11
2018-06-02T12:57:46.567Z,101409.66
2018-06-02T13:00:20.239Z,101414.02
2018-06-02T13:02:53.277Z,101410.17
2018-06-02T13:05:26.889Z,101405.69
2018-06-02T13:07:59.526Z,101413.30
2018-06-02T13:10:33.887Z,101418.33
2018-06-02T13:13:07.726Z,101413.02
2018-06-02T13:15:41.237Z,101415.30
2018-06-02T13:18:14.586Z,101418.61
2018-06-02T13:20:46.509Z,101417.63
2018-06-02T13:23:20.849Z,101414.03
2018-06-02T13:25:54.258Z,101416.39
2018-06-02T13:28:28.034Z,101420.51
2018-06-02T13:31:02.510Z,101416.48
2018-06-02T13:33:35.507Z,101423.31
2018-06-02T13:36:08.709Z,101418.99
2018-06-02T13:38:42.059Z,101419.09
2018-06-02T13:41:15.251Z,101423.31
2018-06-02T13:43:48.866Z,101429.04
2018-06-02T13:46:22.210Z,101426.76
2018-06-02T13:48:55.581Z,101433.63
2018-06-02T13:51:27.511Z,101430.41
2018-06-02T13:54:01.534Z,101431.03
2018-06-02T13:56:35.267Z,101436.61
2018-06-02T13:59:10.289Z,101436.09
2018-06-02T14:01:44.348Z,101433.91
2018-06-02T14:04:17.859Z,101432.45
2018-06-02T14:09:46.801Z,101437.28
2018-06-02T14:12:20.484Z,101443.25
2018-06-02T14:14:54.572Z,101444.91
2018-06-02T14:17:26.702Z,101446.05
2018-06-02T14:19:59.603Z,101449.02
2018-06-02T14:22:31.666Z,101446.98
2018-06-02T14:25:03.822Z,101454.99
2018-06-02T14:27:37.915Z,101448.69
2018-06-02T14:30:11.566Z,101452.58
2018-06-02T14:32:43.537Z,101451.20
2018-06-02T14:35:16.236Z,101449.27
2018-06-02T14:37:49.869Z,101450.64
2018-06-02T14:40:26.085Z,101444.38
2018-06-02T14:42:59.735Z,101447.50
2018-06-02T14:45:33.209Z,101446.09
2018-06-02T14:48:07.605Z,101451.20
2018-06-02T14:50:40.746Z,101449.69
2018-06-02T14:53:14.731Z,101450.83
2018-06-02T14:55:47.686Z,101453.23
2018-06-02T14:58:21.477Z,101453.23
2018-06-02T15:00:56.471Z,101454.23
2018-06-02T15:03:29.252Z,101459.41
2018-06-02T15:06:02.732Z,101456.22
2018-06-02T15:08:36.634Z,101453.70
2018-06-02T15:11:08.691Z,101446.79
2018-06-02T15:13:41.591Z,101453.28
2018-06-02T15:16:13.403Z,101452.75
2018-06-02T15:18:47.237Z,101458.72
2018-06-02T15:21:20.216Z,101459.77
2018-06-02T15:23:53.700Z,101463.75
2018-06-02T15:26:26.549Z,101455.31
2018-06-02T15:29:00.711Z,101465.45
2018-06-02T15:31:34.921Z,101457.95
2018-06-02T15:34:08.502Z,101462.50
2018-06-02T15:36:41.766Z,101457.67
2018-06-02T15:39:15.699Z,101456.15
2018-06-02T15:41:49.695Z,101455.90
2018-06-02T15:44:23.706Z,101449.41
2018-06-02T15:46:57.509Z,101451.11
2018-06-02T15:49:31.599Z,101455.55
2018-06-02T15:52:05.483Z,101454.67
2018-06-02T15:54:39.259Z,101459.31
2018-06-02T15:57:17.704Z,101461.83
2018-06-02T15:59:50.486Z,101448.39
2018-06-02T16:02:26.066Z,101446.22
2018-06-02T16:04:59.504Z,101453.05
2018-06-02T16:07:32.244Z,101447.25
2018-06-02T16:10:05.713Z,101444.81
2018-06-02T16:12:39.713Z,101433.05
2018-06-02T16:15:13.625Z,101436.06
2018-06-02T16:17:45.990Z,101440.49
2018-06-02T16:20:19.246Z,101437.69
2018-06-02T16:22:52.566Z,101436.27
2018-06-02T16:25:25.868Z,101433.69
2018-06-02T16:27:59.888Z,101437.05
2018-06-02T16:30:33.861Z,101430.34
2018-06-02T16:33:07.503Z,101426.30
2018-06-02T16:35:40.581Z,101423.01
2018-06-02T16:38:12.508Z,101423.14
2018-06-02T16:40:45.656Z,101419.04
2018-06-02T16:43:17.715Z,101418.41
2018-06-02T16:45:51.817Z,101420.98
2018-06-02T16:48:25.766Z,101420.66
2018-06-02T16:50:59.839Z,101412.90
2018-06-02T16:53:32.282Z,101410.84
2018-06-02T16:56:04.755Z,101409.58
2018-06-02T16:58:38.549Z,101407.08
2018-06-02T17:01:10.567Z,101407.16
2018-06-02T17:03:43.631Z,101409.87
2018-06-02T17:06:16.633Z,101408.07
2018-06-02T17:08:49.924Z,101407.98
2018-06-02T17:11:23.617Z,101407.14
2018-06-02T17:13:55.874Z,101405.39
2018-06-02T17:16:27.835Z,101399.80
2018-06-02T17:19:01.549Z,101394.94
2018-06-02T17:21:34.541Z,101393.19
2018-06-02T17:24:07.626Z,101391.34
2018-06-02T17:26:40.527Z,101394.27
2018-06-02T17:29:15.027Z,101388.40
2018-06-02T17:31:46.841Z,101388.78
2018-06-02T17:34:20.544Z,101383.81
2018-06-02T17:36:54.732Z,101384.14
2018-06-02T17:39:28.358Z,101387.28
2018-06-02T17:42:01.615Z,101382.48
2018-06-02T17:44:35.845Z,101382.84
2018-06-02T17:47:09.857Z,101380.33
2018-06-02T17:49:43.594Z,101378.11
2018-06-02T17:52:15.732Z,101372.77
2018-06-02T17:54:49.855Z,101374.14
2018-06-02T17:57:23.924Z,101373.84
2018-06-02T17:59:57.568Z,101376.17
2018-06-02T18:02:30.689Z,101371.25
2018-06-02T18:05:05.491Z,101378.06
2018-06-02T18:07:39.712Z,101366.82
2018-06-02T18:10:13.930Z,101371.81
2018-06-02T18:12:47.725Z,101373.58
2018-06-02T18:15:21.571Z,101362.69
2018-06-02T18:17:55.238Z,101359.22
2018-06-02T18:20:28.728Z,101363.31
2018-06-02T18:23:02.946Z,101350.47
2018-06-02T18:25:36.754Z,101350.20
2018-06-02T18:28:10.950Z,101348.47
2018-06-02T18:30:43.757Z,101348.02
2018-06-02T18:33:17.799Z,101342.73
2018-06-02T18:35:51.616Z,101336.95
2018-06-02T18:38:23.866Z,101331.77
2018-06-02T18:44:15.789Z,101335.75
2018-06-02T18:46:52.800Z,101331.83
2018-06-02T18:49:30.568Z,101326.68
2018-06-02T18:52:08.118Z,101327.25
2018-06-02T18:54:45.551Z,101332.42
2018-06-02T18:57:23.093Z,101326.43
2018-06-02T18:59:59.433Z,101328.47
2018-06-02T19:02:35.011Z,101323.16
2018-06-02T19:05:11.827Z,101325.06
2018-06-02T19:07:50.125Z,101325.09
2018-06-02T19:10:28.602Z,101314.81
2018-06-02T19:13:59.258Z,101310.04
2018-06-02T19:16:37.106Z,101311.75
2018-06-02T19:19:15.357Z,101305.59
2018-06-02T19:21:52.080Z,101308.67
2018-06-02T19:24:29.217Z,101301.51
2018-06-02T19:27:05.836Z,101300.54
2018-06-02T19:29:43.329Z,101297.21
2018-06-02T19:32:20.783Z,101288.22
2018-06-02T19:34:57.967Z,101284.21
2018-06-02T19:37:35.280Z,101291.25
2018-06-02T19:40:10.022Z,101283.27
2018-06-02T19:42:46.758Z,101277.27
2018-06-02T19:45:23.459Z,101273.44
2018-06-02T19:48:00.096Z,101272.93
2018-06-02T19:50:36.568Z,101261.55
2018-06-02T19:53:13.777Z,101265.06
2018-06-02T19:55:51.352Z,101257.36
2018-06-02T19:58:29.337Z,101256.35
2018-06-02T20:01:06.498Z,101253.16
2018-06-02T20:03:43.914Z,101252.34
2018-06-02T20:06:21.343Z,101252.84
2018-06-02T20:08:59.650Z,101246.30
2018-06-02T20:11:36.818Z,101243.09
2018-06-02T20:14:14.446Z,101246.08
2018-06-02T20:16:52.488Z,101240.33
2018-06-02T20:19:29.251Z,101242.81
2018-06-02T20:22:06.667Z,101240.77
2018-06-02T20:24:44.244Z,101234.89
2018-06-02T20:27:19.782Z,101231.66
2018-06-02T20:29:58.318Z,101239.15
2018-06-02T20:32:36.338Z,101231.55
2018-06-02T20:35:13.298Z,101229.67
2018-06-02T20:37:51.080Z,101226.30
2018-06-02T20:40:28.524Z,101222.55
2018-06-02T20:43:06.082Z,101222.02
2018-06-02T20:45:41.410Z,101215.08
2018-06-02T20:48:18.317Z,101210.66
2018-06-02T20:50:56.348Z,101209.59
2018-06-02T20:53:32.729Z,101210.66
2018-06-02T20:56:10.089Z,101211.94
2018-06-02T20:58:46.255Z,101211.69
2018-06-02T21:01:23.509Z,101206.76
2018-06-02T21:04:01.089Z,101203.17
2018-06-02T21:06:38.084Z,101207.94
2018-06-02T21:09:15.484Z,101188.25
2018-06-02T21:11:52.281Z,101207.42
2018-06-02T21:14:27.206Z,101196.27
2018-06-02T21:17:04.094Z,101195.31
2018-06-02T21:19:40.558Z,101186.50
2018-06-02T21:22:14.793Z,101188.17
2018-06-02T21:24:51.537Z,101181.16
2018-06-02T21:27:28.091Z,101182.38
2018-06-02T21:30:05.096Z,101177.61
2018-06-02T21:32:42.287Z,101173.11
2018-06-02T21:35:19.097Z,101174.39
2018-06-02T21:37:56.418Z,101171.26
2018-06-02T21:40:32.427Z,101163.42
2018-06-02T21:43:09.418Z,101172.90
2018-06-02T21:45:43.997Z,101166.16
2018-06-02T21:51:06.739Z,101161.50
2018-06-02T21:53:43.307Z,101163.53
2018-06-02T21:56:20.085Z,101156.88
2018-06-02T21:58:57.410Z,101153.91
2018-06-02T22:04:17.404Z,101147.98
2018-06-02T22:06:53.888Z,101150.00
2018-06-02T22:09:31.092Z,101145.29
2018-06-02T22:12:08.094Z,101142.25
2018-06-02T22:14:45.092Z,101139.63
2018-06-02T22:17:22.304Z,101134.14
2018-06-02T22:19:59.748Z,101130.97
2018-06-02T22:22:37.069Z,101126.84
2018-06-02T22:25:13.902Z,101126.75
2018-06-02T22:27:51.458Z,101114.23
2018-06-02T22:30:28.091Z,101117.67
2018-06-02T22:33:05.311Z,101115.93
2018-06-02T22:35:42.484Z,101109.09
2018-06-02T22:38:19.750Z,101107.14
2018-06-02T22:40:58.072Z,101099.47
2018-06-02T22:43:34.808Z,101096.89
2018-06-02T22:46:12.094Z,101101.88
2018-06-02T22:48:48.762Z,101090.16
2018-06-02T22:52:33.831Z,101087.83
2018-06-02T22:55:10.814Z,101083.58
2018-06-02T22:57:47.416Z,101088.46
2018-06-02T23:00:26.684Z,101092.51
2018-06-02T23:03:03.563Z,101085.04
2018-06-02T23:05:40.266Z,101082.45
2018-06-02T23:08:17.211Z,101083.59
2018-06-02T23:10:53.874Z,101080.05
2018-06-02T23:13:31.287Z,101073.09
2018-06-02T23:16:08.070Z,101074.26
2018-06-02T23:18:43.866Z,101074.26
2018-06-02T23:24:12.097Z,101069.77
2018-06-02T23:26:48.091Z,101068.36
2018-06-02T23:29:24.090Z,101068.98
2018-06-02T23:32:00.090Z,101057.97
2018-06-02T23:34:35.870Z,101059.83
2018-06-02T23:37:11.097Z,101052.79
2018-06-02T23:39:47.074Z,101059.73
2018-06-02T23:42:22.750Z,101061.91
2018-06-02T23:44:58.327Z,101052.25
2018-06-02T23:47:34.211Z,101056.73
2018-06-02T23:50:09.876Z,101053.31
2018-06-02T23:52:45.483Z,101060.67
2018-06-02T23:55:21.063Z,101065.86
2018-06-02T23:57:57.206Z,101058.92
